createdAt,value
2019-04-26T00:01:35.483Z,2.73
2019-04-26T00:04:24.643Z,2.87
2019-04-26T00:07:12.789Z,2.87
2019-04-26T00:10:03.556Z,3.00
2019-04-26T00:12:59.160Z,3.60
2019-04-26T00:15:59.014Z,2.83
2019-04-26T00:18:46.638Z,2.60
2019-04-26T00:21:34.619Z,2.70
2019-04-26T00:24:23.978Z,3.73
2019-04-26T00:27:12.728Z,2.50
2019-04-26T00:30:01.030Z,2.73
2019-04-26T00:32:49.345Z,3.77
2019-04-26T00:35:47.292Z,3.00
2019-04-26T00:38:27.578Z,3.23
2019-04-26T00:41:16.396Z,3.30
2019-04-26T00:44:04.392Z,3.00
2019-04-26T00:46:56.313Z,3.17
2019-04-26T00:49:44.662Z,2.97
2019-04-26T00:52:33.551Z,3.40
2019-04-26T00:55:22.034Z,3.80
2019-04-26T00:58:10.751Z,2.87
2019-04-26T01:01:00.560Z,3.60
2019-04-26T01:03:49.023Z,3.10
2019-04-26T01:06:39.735Z,3.23
2019-04-26T01:09:27.891Z,3.43
2019-04-26T01:12:16.809Z,3.43
2019-04-26T01:15:05.754Z,3.70
2019-04-26T01:17:53.308Z,3.67
2019-04-26T01:20:43.796Z,3.37
2019-04-26T01:23:35.038Z,3.70
2019-04-26T01:26:31.939Z,3.03
2019-04-26T01:29:22.127Z,3.73
2019-04-26T01:32:12.290Z,3.83
2019-04-26T01:35:00.211Z,3.40
2019-04-26T01:37:50.643Z,3.83
2019-04-26T01:40:38.888Z,3.03
2019-04-26T01:43:55.654Z,3.50
2019-04-26T01:46:46.198Z,3.10
2019-04-26T01:49:35.622Z,3.87
2019-04-26T01:52:24.191Z,3.83
2019-04-26T01:55:12.615Z,3.43
2019-04-26T01:58:03.252Z,3.63
2019-04-26T02:01:09.472Z,3.33
2019-04-26T02:03:57.581Z,4.10
2019-04-26T02:06:46.139Z,3.77
2019-04-26T02:09:34.515Z,3.63
2019-04-26T02:12:23.550Z,4.57
2019-04-26T02:15:12.819Z,4.67
2019-04-26T02:18:01.774Z,4.70
2019-04-26T02:21:06.061Z,5.10
2019-04-26T02:23:59.128Z,4.80
2019-04-26T02:26:49.205Z,5.20
2019-04-26T02:29:36.836Z,4.10
2019-04-26T02:32:27.243Z,4.60
2019-04-26T02:35:16.253Z,5.10
2019-04-26T02:38:04.746Z,6.17
2019-04-26T02:40:54.427Z,5.27
2019-04-26T02:43:45.142Z,5.30
2019-04-26T02:46:43.825Z,7.20
2019-04-26T02:49:38.630Z,7.20
2019-04-26T02:53:03.607Z,5.83
2019-04-26T02:56:09.476Z,5.43
2019-04-26T02:59:22.460Z,5.10
2019-04-26T03:02:19.408Z,5.70
2019-04-26T03:05:09.747Z,6.70
2019-04-26T03:08:08.367Z,6.87
2019-04-26T03:11:06.281Z,6.53
2019-04-26T03:14:14.260Z,7.00
2019-04-26T03:17:33.650Z,6.70
2019-04-26T03:20:28.647Z,6.60
2019-04-26T03:23:45.805Z,5.60
2019-04-26T03:26:35.606Z,5.73
2019-04-26T03:29:50.012Z,6.20
2019-04-26T03:32:58.324Z,6.03
2019-04-26T03:36:14.278Z,6.27
2019-04-26T03:39:25.274Z,6.10
2019-04-26T03:42:45.198Z,5.43
2019-04-26T03:46:07.066Z,5.37
2019-04-26T03:49:14.342Z,4.93
2019-04-26T03:52:45.451Z,3.80
2019-04-26T03:56:27.423Z,4.00
2019-04-26T04:00:16.757Z,4.23
2019-04-26T04:03:47.489Z,3.63
2019-04-26T04:06:52.613Z,3.40
2019-04-26T04:09:27.712Z,4.00
2019-04-26T04:12:24.236Z,4.60
2019-04-26T04:15:17.808Z,5.37
2019-04-26T04:18:11.700Z,5.10
2019-04-26T04:21:23.687Z,5.10
2019-04-26T04:24:17.961Z,5.73
2019-04-26T04:27:49.419Z,6.10
2019-04-26T04:31:08.029Z,5.60
2019-04-26T04:34:05.400Z,5.60
2019-04-26T04:36:56.156Z,5.47
2019-04-26T04:40:01.814Z,5.87
2019-04-26T04:43:17.695Z,5.47
2019-04-26T04:46:50.290Z,5.60
2019-04-26T04:49:56.762Z,6.37
2019-04-26T04:53:08.992Z,7.73
2019-04-26T04:56:17.631Z,6.90
2019-04-26T04:59:09.710Z,7.17
2019-04-26T05:02:21.931Z,7.53
2019-04-26T05:06:07.395Z,7.60
2019-04-26T05:09:10.682Z,8.70
2019-04-26T05:12:19.239Z,10.73
2019-04-26T05:15:52.795Z,9.20
2019-04-26T05:19:25.468Z,9.50
2019-04-26T05:22:57.243Z,10.70
2019-04-26T05:26:51.525Z,9.80
2019-04-26T05:30:13.495Z,9.77
2019-04-26T05:33:24.644Z,9.63
2019-04-26T05:36:33.236Z,10.27
2019-04-26T05:39:25.067Z,10.23
2019-04-26T05:43:10.616Z,10.17
2019-04-26T05:46:22.280Z,10.53
2019-04-26T05:49:47.791Z,9.90
2019-04-26T05:53:14.799Z,10.07
2019-04-26T05:56:25.380Z,9.50
2019-04-26T05:59:26.864Z,9.80
2019-04-26T06:03:01.690Z,11.00
2019-04-26T06:06:20.164Z,10.43
2019-04-26T06:09:43.435Z,9.70
2019-04-26T06:12:47.979Z,9.60
2019-04-26T06:15:48.847Z,10.00
2019-04-26T06:19:03.391Z,10.23
2019-04-26T06:22:15.943Z,10.07
2019-04-26T06:25:23.928Z,11.60
2019-04-26T06:28:35.407Z,11.50
2019-04-26T06:31:35.619Z,10.40
2019-04-26T06:34:51.030Z,11.43
2019-04-26T06:37:53.900Z,10.57
2019-04-26T06:41:24.891Z,11.27
2019-04-26T06:44:17.567Z,9.80
2019-04-26T06:47:31.074Z,10.37
2019-04-26T06:50:27.202Z,9.67
2019-04-26T06:53:57.213Z,9.50
2019-04-26T06:57:23.978Z,8.40
2019-04-26T07:00:22.264Z,10.63
2019-04-26T07:03:44.957Z,8.60
2019-04-26T07:06:38.523Z,8.07
2019-04-26T07:09:30.013Z,9.40
2019-04-26T07:12:36.488Z,9.07
2019-04-26T07:16:00.317Z,9.60
2019-04-26T07:19:29.292Z,9.77
2019-04-26T07:22:35.530Z,9.03
2019-04-26T07:26:00.233Z,8.90
2019-04-26T07:29:07.207Z,8.07
2019-04-26T07:32:05.298Z,9.23
2019-04-26T07:35:10.523Z,8.70
2019-04-26T07:39:10.437Z,8.80
2019-04-26T07:42:40.804Z,8.77
2019-04-26T07:46:08.535Z,10.40
2019-04-26T07:50:03.533Z,8.43
2019-04-26T07:53:36.476Z,8.53
2019-04-26T07:57:00.260Z,9.50
2019-04-26T08:00:13.069Z,8.57
2019-04-26T08:03:26.103Z,11.23
2019-04-26T08:06:28.567Z,10.73
2019-04-26T08:09:26.728Z,10.00
2019-04-26T08:12:12.138Z,9.70
2019-04-26T08:15:30.172Z,8.27
2019-04-26T08:18:26.215Z,9.10
2019-04-26T08:21:32.025Z,10.03
2019-04-26T08:24:28.190Z,9.50
2019-04-26T08:27:25.556Z,10.40
2019-04-26T08:30:19.124Z,11.23
2019-04-26T08:33:10.564Z,10.43
2019-04-26T08:35:58.274Z,10.30
2019-04-26T08:38:52.442Z,10.00
2019-04-26T08:41:40.334Z,11.07
2019-04-26T08:44:38.199Z,11.10
2019-04-26T08:47:38.772Z,10.83
2019-04-26T08:50:52.732Z,11.57
2019-04-26T08:53:42.313Z,10.67
2019-04-26T08:56:35.864Z,11.40
2019-04-26T08:59:26.594Z,13.23
2019-04-26T09:02:50.867Z,13.30
2019-04-26T09:06:07.707Z,14.20
2019-04-26T09:08:57.575Z,15.87
2019-04-26T09:11:58.916Z,15.17
2019-04-26T09:14:38.808Z,17.10
2019-04-26T09:17:27.832Z,17.63
2019-04-26T09:20:28.084Z,20.63
2019-04-26T09:23:39.621Z,21.10
2019-04-26T09:26:42.495Z,21.03
2019-04-26T09:29:49.399Z,22.27
2019-04-26T09:32:45.910Z,22.40
2019-04-26T09:35:34.515Z,24.10
2019-04-26T09:38:22.084Z,23.70
2019-04-26T09:41:10.651Z,22.10
2019-04-26T09:44:04.029Z,22.87
2019-04-26T09:46:59.332Z,22.80
2019-04-26T09:50:24.952Z,20.60
2019-04-26T09:53:13.103Z,18.37
2019-04-26T09:56:01.115Z,19.70
2019-04-26T09:58:48.742Z,16.90
2019-04-26T10:01:37.753Z,16.40
2019-04-26T10:04:25.595Z,16.00
2019-04-26T10:07:14.341Z,16.87
2019-04-26T10:10:02.705Z,16.20
2019-04-26T10:13:16.413Z,17.13
2019-04-26T10:16:09.497Z,17.17
2019-04-26T10:19:00.310Z,18.83
2019-04-26T10:21:48.448Z,18.83
2019-04-26T10:24:36.095Z,18.77
2019-04-26T10:27:24.752Z,18.53
2019-04-26T10:30:17.068Z,17.40
2019-04-26T10:33:05.047Z,17.50
2019-04-26T10:35:56.756Z,17.80
2019-04-26T10:38:46.184Z,17.60
2019-04-26T10:41:34.571Z,16.90
2019-04-26T10:44:23.280Z,17.13
2019-04-26T10:47:11.239Z,17.00
2019-04-26T10:49:59.310Z,18.33
2019-04-26T10:53:09.486Z,19.20
2019-04-26T10:56:25.477Z,17.40
2019-04-26T10:59:39.664Z,19.17
2019-04-26T11:02:25.657Z,20.50
2019-04-26T11:05:18.233Z,19.50
2019-04-26T11:08:04.464Z,14.83
2019-04-26T11:10:52.501Z,13.60
2019-04-26T11:13:40.127Z,10.33
2019-04-26T11:16:28.984Z,10.30
2019-04-26T11:19:17.307Z,9.60
2019-04-26T11:22:05.975Z,9.13
2019-04-26T11:24:55.060Z,8.67
2019-04-26T11:27:46.648Z,10.17
2019-04-26T11:30:33.336Z,11.40
2019-04-26T11:33:21.857Z,14.43
2019-04-26T11:36:10.565Z,13.40
2019-04-26T11:39:01.261Z,15.10
2019-04-26T11:41:49.508Z,16.00
2019-04-26T11:44:37.046Z,14.10
2019-04-26T11:47:25.299Z,15.70
2019-04-26T11:50:16.191Z,15.90
2019-04-26T11:53:06.285Z,17.67
2019-04-26T11:55:54.419Z,18.00
2019-04-26T11:58:43.456Z,18.33
2019-04-26T12:01:32.174Z,18.97
2019-04-26T12:04:41.575Z,17.77
2019-04-26T12:07:33.208Z,22.43
2019-04-26T12:10:21.700Z,22.20
2019-04-26T12:13:10.083Z,21.00
2019-04-26T12:15:58.678Z,20.47
2019-04-26T12:18:47.104Z,20.00
2019-04-26T12:21:35.218Z,22.63
2019-04-26T12:24:25.315Z,23.67
2019-04-26T12:27:14.150Z,22.10
2019-04-26T12:30:02.008Z,21.03
2019-04-26T12:32:50.285Z,20.13
2019-04-26T12:35:38.672Z,21.80
2019-04-26T12:38:28.528Z,22.00
2019-04-26T12:41:17.187Z,20.73
2019-04-26T12:44:05.820Z,22.60
2019-04-26T12:47:07.076Z,20.60
2019-04-26T12:49:58.988Z,22.70
2019-04-26T12:52:45.407Z,22.77
2019-04-26T12:55:34.204Z,22.10
2019-04-26T12:58:21.944Z,22.80
2019-04-26T13:01:13.258Z,21.73
2019-04-26T13:04:05.512Z,22.13
2019-04-26T13:07:06.927Z,23.93
2019-04-26T13:10:15.868Z,21.60
2019-04-26T13:13:23.065Z,23.13
2019-04-26T13:16:21.804Z,22.90
2019-04-26T13:19:10.235Z,22.83
2019-04-26T13:21:58.164Z,20.17
2019-04-26T13:24:46.436Z,20.10
2019-04-26T13:27:35.468Z,20.73
2019-04-26T13:30:32.784Z,21.67
2019-04-26T13:33:13.525Z,20.20
2019-04-26T13:36:03.246Z,19.70
2019-04-26T13:38:50.992Z,19.17
2019-04-26T13:41:40.255Z,18.80
2019-04-26T13:44:46.826Z,20.60
2019-04-26T13:47:57.656Z,19.00
2019-04-26T13:50:50.879Z,18.83
2019-04-26T13:53:39.013Z,18.23
2019-04-26T13:56:26.843Z,18.20
2019-04-26T13:59:14.926Z,14.80
2019-04-26T14:02:11.299Z,17.67
2019-04-26T14:04:51.735Z,16.90
2019-04-26T14:07:39.308Z,20.17
2019-04-26T14:10:27.654Z,15.70
2019-04-26T14:13:15.395Z,15.43
2019-04-26T14:16:03.878Z,15.10
2019-04-26T14:18:53.590Z,15.90
2019-04-26T14:21:42.332Z,15.70
2019-04-26T14:24:38.999Z,13.87
2019-04-26T14:27:49.871Z,13.63
2019-04-26T14:30:37.471Z,12.97
2019-04-26T14:33:27.141Z,12.67
2019-04-26T14:36:17.958Z,12.97
2019-04-26T14:39:10.700Z,13.53
2019-04-26T14:41:58.415Z,13.83
2019-04-26T14:44:49.668Z,12.83
2019-04-26T14:47:46.688Z,12.87
2019-04-26T14:50:28.140Z,14.30
2019-04-26T14:53:16.544Z,13.53
2019-04-26T14:56:04.879Z,13.40
2019-04-26T14:58:53.583Z,13.33
2019-04-26T15:02:10.351Z,12.23
2019-04-26T15:05:22.270Z,12.37
2019-04-26T15:08:11.688Z,15.23
2019-04-26T15:11:01.337Z,12.87
2019-04-26T15:13:50.856Z,11.30
2019-04-26T15:16:41.416Z,9.10
2019-04-26T15:19:28.719Z,8.53
2019-04-26T15:22:16.923Z,8.53
2019-04-26T15:25:07.768Z,9.87
2019-04-26T15:27:54.042Z,7.97
2019-04-26T15:30:46.632Z,9.23
2019-04-26T15:33:32.566Z,7.60
2019-04-26T15:36:23.258Z,11.50
2019-04-26T15:39:23.643Z,10.43
2019-04-26T15:42:23.260Z,8.60
2019-04-26T15:45:32.609Z,8.83
2019-04-26T15:48:55.799Z,8.90
2019-04-26T15:51:44.316Z,9.10
2019-04-26T15:54:32.472Z,8.23
2019-04-26T15:57:24.483Z,8.00
2019-04-26T16:00:12.453Z,7.33
2019-04-26T16:03:03.793Z,7.30
2019-04-26T16:05:50.423Z,6.77
2019-04-26T16:08:42.715Z,7.90
2019-04-26T16:11:29.031Z,7.37
2019-04-26T16:14:16.992Z,6.70
2019-04-26T16:17:06.761Z,7.67
2019-04-26T16:19:56.189Z,6.80
2019-04-26T16:22:45.033Z,7.37
2019-04-26T16:25:34.436Z,6.70
2019-04-26T16:28:38.371Z,6.87
2019-04-26T16:31:34.258Z,6.97
2019-04-26T16:34:23.358Z,6.63
2019-04-26T16:37:14.961Z,6.47
2019-04-26T16:40:01.816Z,6.87
2019-04-26T16:42:49.681Z,6.00
2019-04-26T16:45:41.268Z,6.27
2019-04-26T16:48:29.556Z,7.00
2019-04-26T16:51:18.295Z,6.77
2019-04-26T16:54:10.654Z,7.70
2019-04-26T16:56:58.993Z,5.70
2019-04-26T16:59:49.126Z,6.47
2019-04-26T17:02:37.010Z,5.93
2019-04-26T17:08:19.118Z,5.63
2019-04-26T17:09:41.877Z,5.70
2019-04-26T17:11:05.664Z,5.20
2019-04-26T17:13:56.765Z,7.03
2019-04-26T17:16:44.423Z,6.53
2019-04-26T17:19:34.303Z,5.70
2019-04-26T17:22:41.810Z,5.73
2019-04-26T17:25:26.937Z,5.40
2019-04-26T17:28:17.955Z,5.50
2019-04-26T17:31:04.855Z,5.90
2019-04-26T17:33:52.860Z,6.80
2019-04-26T17:36:41.248Z,5.53
2019-04-26T17:39:30.385Z,6.23
2019-04-26T17:42:18.750Z,5.37
2019-04-26T17:45:07.250Z,6.00
2019-04-26T17:47:55.595Z,9.50
2019-04-26T17:50:43.245Z,12.90
2019-04-26T17:53:33.739Z,8.53
2019-04-26T17:56:21.872Z,5.77
2019-04-26T17:59:30.169Z,6.93
2019-04-26T18:02:01.311Z,7.20
2019-04-26T18:04:59.018Z,7.03
2019-04-26T18:07:43.664Z,7.43
2019-04-26T18:10:30.538Z,6.17
2019-04-26T18:13:18.655Z,6.17
2019-04-26T18:16:06.560Z,6.40
2019-04-26T18:19:12.689Z,6.03
2019-04-26T18:22:12.904Z,7.97
2019-04-26T18:25:04.283Z,8.03
2019-04-26T18:27:50.000Z,7.50
2019-04-26T18:30:40.410Z,6.13
2019-04-26T18:33:27.824Z,7.17
2019-04-26T18:36:15.685Z,6.33
2019-04-26T18:39:05.527Z,6.73
2019-04-26T18:41:53.752Z,6.60
2019-04-26T18:44:47.369Z,7.13
2019-04-26T18:47:38.256Z,6.57
2019-04-26T18:50:28.420Z,5.73
2019-04-26T18:53:44.992Z,6.03
2019-04-26T18:56:39.617Z,6.30
2019-04-26T18:59:23.991Z,6.90
2019-04-26T19:02:18.707Z,9.70
2019-04-26T19:05:03.622Z,13.23
2019-04-26T19:07:52.184Z,16.03
2019-04-26T19:10:40.663Z,18.60
2019-04-26T19:13:51.539Z,18.80
2019-04-26T19:17:03.245Z,22.27
2019-04-26T19:20:26.161Z,22.37
2019-04-26T19:23:14.573Z,22.40
2019-04-26T19:26:03.288Z,26.37
2019-04-26T19:28:52.849Z,25.87
2019-04-26T19:31:42.982Z,27.60
2019-04-26T19:34:31.326Z,25.53
2019-04-26T19:37:19.475Z,24.80
2019-04-26T19:40:09.284Z,23.87
2019-04-26T19:42:57.775Z,24.73
2019-04-26T19:45:56.293Z,29.10
2019-04-26T19:49:06.471Z,28.07
2019-04-26T19:52:06.045Z,30.20
2019-04-26T19:55:11.357Z,28.03
2019-04-26T19:58:20.578Z,29.80
2019-04-26T20:01:07.411Z,29.87
2019-04-26T20:03:55.662Z,31.43
2019-04-26T20:06:43.852Z,33.37
2019-04-26T20:09:32.127Z,32.23
2019-04-26T20:12:23.429Z,30.80
2019-04-26T20:15:24.877Z,30.53
2019-04-26T20:18:03.695Z,33.47
2019-04-26T20:20:52.128Z,31.37
2019-04-26T20:23:45.023Z,33.53
2019-04-26T20:26:31.423Z,37.53
2019-04-26T20:29:21.457Z,34.30
2019-04-26T20:32:21.180Z,34.73
2019-04-26T20:35:19.707Z,34.47
2019-04-26T20:38:07.107Z,32.70
2019-04-26T20:40:54.837Z,33.60
2019-04-26T20:43:46.844Z,32.83
2019-04-26T20:46:34.453Z,35.37
2019-04-26T20:49:22.104Z,35.20
2019-04-26T20:52:10.570Z,36.63
2019-04-26T20:55:05.408Z,33.83
2019-04-26T20:57:53.447Z,33.10
2019-04-26T21:00:53.735Z,33.70
2019-04-26T21:03:32.113Z,34.97
2019-04-26T21:06:22.260Z,33.40
2019-04-26T21:09:12.313Z,35.17
2019-04-26T21:12:01.918Z,33.80
2019-04-26T21:14:51.755Z,34.70
2019-04-26T21:17:41.502Z,33.33
2019-04-26T21:20:34.505Z,32.57
2019-04-26T21:23:19.793Z,33.10
2019-04-26T21:26:33.083Z,31.90
2019-04-26T21:29:41.634Z,35.90
2019-04-26T21:32:43.729Z,32.40
2019-04-26T21:35:39.787Z,32.77
2019-04-26T21:38:41.439Z,33.80
2019-04-26T21:41:33.343Z,35.27
2019-04-26T21:44:21.904Z,34.27
2019-04-26T21:47:10.274Z,33.40
2019-04-26T21:50:00.502Z,34.07
2019-04-26T21:52:48.346Z,33.60
2019-04-26T21:55:38.795Z,34.03
2019-04-26T21:58:26.551Z,35.70
2019-04-26T22:01:19.523Z,35.77
2019-04-26T22:04:07.975Z,33.20
2019-04-26T22:06:55.765Z,33.03
2019-04-26T22:09:57.799Z,32.03
2019-04-26T22:12:45.724Z,35.20
2019-04-26T22:15:54.500Z,32.10
2019-04-26T22:18:56.780Z,34.20
2019-04-26T22:21:59.478Z,33.67
2019-04-26T22:24:49.690Z,31.73
2019-04-26T22:27:38.152Z,33.70
2019-04-26T22:30:29.396Z,33.73
2019-04-26T22:33:17.767Z,32.67
2019-04-26T22:36:05.443Z,32.50
2019-04-26T22:38:55.641Z,33.57
2019-04-26T22:41:43.735Z,32.03
2019-04-26T22:44:40.400Z,32.80
2019-04-26T22:47:42.742Z,30.97
2019-04-26T22:50:33.489Z,29.17
2019-04-26T22:53:25.320Z,31.03
2019-04-26T22:56:10.995Z,29.70
2019-04-26T22:59:04.743Z,29.90
2019-04-26T23:01:48.948Z,27.67
2019-04-26T23:04:37.502Z,27.67
2019-04-26T23:07:26.200Z,26.03
2019-04-26T23:10:15.919Z,26.93
2019-04-26T23:13:13.692Z,27.77
2019-04-26T23:16:19.071Z,25.17
2019-04-26T23:19:38.118Z,21.60
2019-04-26T23:22:30.907Z,24.60
2019-04-26T23:25:16.528Z,23.63
2019-04-26T23:28:04.751Z,24.90
2019-04-26T23:30:53.535Z,24.40
2019-04-26T23:33:42.955Z,23.73
2019-04-26T23:36:31.811Z,24.07
2019-04-26T23:39:20.192Z,23.10
2019-04-26T23:42:12.325Z,23.17
2019-04-26T23:44:59.343Z,21.50
2019-04-26T23:47:47.671Z,23.40
2019-04-26T23:50:35.810Z,21.70
2019-04-26T23:53:24.217Z,21.07
2019-04-26T23:56:16.185Z,21.13
2019-04-26T23:59:03.582Z,19.83
